createdAt,value
2018-04-29T00:00:15.985Z,100736.09
2018-04-29T00:02:44.114Z,100733.52
2018-04-29T00:05:12.245Z,100728.66
2018-04-29T00:07:40.386Z,100735.22
2018-04-29T00:10:08.514Z,100726.64
2018-04-29T00:12:36.652Z,100723.94
2018-04-29T00:15:04.778Z,100713.66
2018-04-29T00:17:32.896Z,100716.97
2018-04-29T00:20:01.019Z,100717.09
2018-04-29T00:22:29.142Z,100720.22
2018-04-29T00:24:57.256Z,100721.62
2018-04-29T00:27:25.382Z,100716.77
2018-04-29T00:29:53.520Z,100714.98
2018-04-29T00:32:21.660Z,100709.62
2018-04-29T00:34:49.767Z,100703.41
2018-04-29T00:37:17.879Z,100706.80
2018-04-29T00:39:46.027Z,100700.70
2018-04-29T00:42:14.140Z,100702.01
2018-04-29T00:44:42.244Z,100709.14
2018-04-29T00:47:10.401Z,100693.88
2018-04-29T00:49:38.507Z,100690.08
2018-04-29T00:52:06.639Z,100697.63
2018-04-29T00:54:34.802Z,100700.22
2018-04-29T00:57:02.918Z,100704.09
2018-04-29T00:59:31.028Z,100700.41
2018-04-29T01:01:59.159Z,100705.76
2018-04-29T01:04:27.272Z,100710.41
2018-04-29T01:06:55.469Z,100707.05
2018-04-29T01:09:23.699Z,100708.93
2018-04-29T01:11:51.901Z,100705.56
2018-04-29T01:14:20.095Z,100694.48
2018-04-29T01:16:48.261Z,100698.37
2018-04-29T01:19:16.386Z,100710.91
2018-04-29T01:21:45.315Z,100699.22
2018-04-29T01:24:13.746Z,100690.42
2018-04-29T01:26:41.870Z,100697.52
2018-04-29T01:29:09.980Z,100696.98
2018-04-29T01:31:38.137Z,100693.52
2018-04-29T01:34:06.276Z,100687.21
2018-04-29T01:36:34.472Z,100676.87
2018-04-29T01:39:02.609Z,100683.98
2018-04-29T01:41:30.795Z,100689.23
2018-04-29T01:43:58.908Z,100684.13
2018-04-29T01:46:27.038Z,100689.83
2018-04-29T01:48:55.159Z,100689.62
2018-04-29T01:51:23.285Z,100682.53
2018-04-29T01:53:51.616Z,100687.77
2018-04-29T01:56:19.720Z,100682.57
2018-04-29T01:58:47.866Z,100678.27
2018-04-29T02:01:15.994Z,100669.25
2018-04-29T02:03:44.100Z,100657.36
2018-04-29T02:06:12.212Z,100658.16
2018-04-29T02:08:40.753Z,100651.85
2018-04-29T02:11:08.878Z,100648.39
2018-04-29T02:13:37.004Z,100666.31
2018-04-29T02:16:05.130Z,100664.77
2018-04-29T02:18:33.250Z,100660.25
2018-04-29T02:21:01.388Z,100650.58
2018-04-29T02:23:29.583Z,100651.97
2018-04-29T02:25:57.725Z,100651.97
2018-04-29T02:28:25.837Z,100653.92
2018-04-29T02:30:53.973Z,100637.31
2018-04-29T02:33:22.098Z,100633.87
2018-04-29T02:35:50.259Z,100634.49
2018-04-29T02:38:18.379Z,100637.73
2018-04-29T02:40:46.566Z,100630.75
2018-04-29T02:43:14.625Z,100625.12
2018-04-29T02:45:42.778Z,100630.47
2018-04-29T02:48:10.906Z,100638.09
2018-04-29T02:50:39.029Z,100639.56
2018-04-29T02:53:07.144Z,100642.55
2018-04-29T02:55:35.275Z,100640.45
2018-04-29T02:58:03.400Z,100650.39
2018-04-29T03:00:31.528Z,100652.47
2018-04-29T03:02:59.647Z,100658.86
2018-04-29T03:05:27.774Z,100648.13
2018-04-29T03:07:55.891Z,100650.59
2018-04-29T03:10:24.014Z,100642.03
2018-04-29T03:12:52.134Z,100635.84
2018-04-29T03:15:20.265Z,100628.60
2018-04-29T03:17:48.365Z,100619.49
2018-04-29T03:20:16.508Z,100621.80
2018-04-29T03:22:44.639Z,100610.12
2018-04-29T03:25:12.770Z,100606.80
2018-04-29T03:27:40.905Z,100602.81
2018-04-29T03:30:09.044Z,100599.39
2018-04-29T03:32:37.177Z,100598.85
2018-04-29T03:35:05.321Z,100602.98
2018-04-29T03:37:33.440Z,100592.20
2018-04-29T03:40:01.581Z,100586.88
2018-04-29T03:42:29.694Z,100597.69
2018-04-29T03:44:57.857Z,100594.19
2018-04-29T03:47:25.991Z,100589.09
2018-04-29T03:49:54.106Z,100581.52
2018-04-29T03:52:22.235Z,100583.70
2018-04-29T03:54:50.364Z,100595.11
2018-04-29T03:57:30.440Z,100606.25
2018-04-29T04:00:10.263Z,100610.77
2018-04-29T04:02:50.201Z,100603.08
2018-04-29T04:05:18.256Z,100603.14
2018-04-29T04:07:46.378Z,100603.08
2018-04-29T04:10:14.505Z,100602.66
2018-04-29T04:12:42.609Z,100606.48
2018-04-29T04:15:11.060Z,100608.58
2018-04-29T04:17:39.208Z,100604.89
2018-04-29T04:20:07.316Z,100596.22
2018-04-29T04:22:35.442Z,100590.81
2018-04-29T04:25:03.587Z,100591.92
2018-04-29T04:27:31.707Z,100584.98
2018-04-29T04:29:59.820Z,100577.53
2018-04-29T04:32:27.950Z,100571.96
2018-04-29T04:34:56.055Z,100578.58
2018-04-29T04:37:24.163Z,100579.63
2018-04-29T04:39:52.287Z,100577.05
2018-04-29T04:42:20.413Z,100566.33
2018-04-29T04:44:48.530Z,100574.89
2018-04-29T04:47:16.680Z,100575.38
2018-04-29T04:49:44.801Z,100576.84
2018-04-29T04:52:12.962Z,100575.67
2018-04-29T04:54:41.087Z,100574.72
2018-04-29T04:57:09.211Z,100575.80
2018-04-29T04:59:37.351Z,100581.36
2018-04-29T05:02:05.505Z,100585.70
2018-04-29T05:04:33.619Z,100590.73
2018-04-29T05:07:01.886Z,100597.41
2018-04-29T05:09:30.214Z,100598.57
2018-04-29T05:11:58.319Z,100605.78
2018-04-29T05:14:26.434Z,100605.56
2018-04-29T05:16:54.589Z,100615.68
2018-04-29T05:19:22.736Z,100608.70
2018-04-29T05:21:58.109Z,100618.63
2018-04-29T05:24:26.230Z,100630.05
2018-04-29T05:26:54.385Z,100630.65
2018-04-29T05:29:22.510Z,100625.45
2018-04-29T05:31:50.630Z,100623.78
2018-04-29T05:34:18.750Z,100627.48
2018-04-29T05:36:46.882Z,100621.36
2018-04-29T05:39:14.990Z,100627.53
2018-04-29T05:41:43.115Z,100621.57
2018-04-29T05:44:11.268Z,100615.88
2018-04-29T05:46:39.371Z,100610.76
2018-04-29T05:49:07.484Z,100611.16
2018-04-29T05:51:35.603Z,100600.61
2018-04-29T05:54:03.731Z,100583.22
2018-04-29T05:56:31.847Z,100579.41
2018-04-29T05:58:59.993Z,100571.05
2018-04-29T06:01:28.099Z,100557.09
2018-04-29T06:03:56.227Z,100548.00
2018-04-29T06:06:24.418Z,100518.86
2018-04-29T06:08:52.498Z,100513.12
2018-04-29T06:11:20.610Z,100505.02
2018-04-29T06:13:48.760Z,100510.45
2018-04-29T06:16:16.930Z,100515.26
2018-04-29T06:18:45.095Z,100520.20
2018-04-29T06:21:14.094Z,100529.57
2018-04-29T06:23:42.221Z,100530.38
2018-04-29T06:26:10.442Z,100521.50
2018-04-29T06:28:38.498Z,100516.28
2018-04-29T06:31:06.625Z,100510.02
2018-04-29T06:33:34.751Z,100507.48
2018-04-29T06:36:02.904Z,100504.97
2018-04-29T06:38:31.004Z,100489.72
2018-04-29T06:40:59.117Z,100497.05
2018-04-29T06:43:30.449Z,100493.20
2018-04-29T06:46:00.460Z,100487.41
2018-04-29T06:48:28.585Z,100498.19
2018-04-29T06:50:56.722Z,100518.87
2018-04-29T06:53:28.663Z,100517.39
2018-04-29T06:55:56.709Z,100529.57
2018-04-29T06:58:24.854Z,100534.42
2018-04-29T07:00:53.060Z,100544.84
2018-04-29T07:03:21.133Z,100548.83
2018-04-29T07:05:49.270Z,100553.89
2018-04-29T07:08:17.385Z,100557.30
2018-04-29T07:10:45.508Z,100569.13
2018-04-29T07:13:13.660Z,100578.45
2018-04-29T07:15:41.801Z,100586.11
2018-04-29T07:18:09.928Z,100595.11
2018-04-29T07:20:38.055Z,100598.73
2018-04-29T07:23:06.164Z,100583.57
2018-04-29T07:25:34.279Z,100573.42
2018-04-29T07:28:02.425Z,100553.56
2018-04-29T07:30:30.565Z,100545.73
2018-04-29T07:32:58.700Z,100544.20
2018-04-29T07:35:26.837Z,100552.57
2018-04-29T07:37:54.971Z,100547.38
2018-04-29T07:40:23.108Z,100541.78
2018-04-29T07:42:51.260Z,100539.29
2018-04-29T07:45:19.387Z,100526.83
2018-04-29T07:47:47.513Z,100521.34
2018-04-29T07:50:15.642Z,100521.55
2018-04-29T07:52:43.795Z,100533.71
2018-04-29T07:55:11.934Z,100532.52
2018-04-29T07:57:40.092Z,100529.38
2018-04-29T08:00:11.340Z,100526.38
2018-04-29T08:02:39.481Z,100529.89
2018-04-29T08:05:07.618Z,100527.59
2018-04-29T08:07:35.723Z,100514.03
2018-04-29T08:10:03.878Z,100507.70
2018-04-29T08:12:32.021Z,100508.55
2018-04-29T08:15:00.147Z,100499.52
2018-04-29T08:17:29.314Z,100503.10
2018-04-29T08:19:57.443Z,100498.88
2018-04-29T08:22:25.564Z,100493.82
2018-04-29T08:24:53.708Z,100493.27
2018-04-29T08:27:21.850Z,100492.48
2018-04-29T08:29:49.984Z,100497.38
2018-04-29T08:32:18.110Z,100515.70
2018-04-29T08:34:46.239Z,100540.34
2018-04-29T08:37:14.391Z,100557.29
2018-04-29T08:39:42.491Z,100566.15
2018-04-29T08:42:10.795Z,100556.16
2018-04-29T08:44:38.926Z,100543.85
2018-04-29T08:47:07.081Z,100542.21
2018-04-29T08:49:35.214Z,100533.96
2018-04-29T08:52:03.348Z,100543.89
2018-04-29T08:54:31.626Z,100525.10
2018-04-29T08:56:59.753Z,100535.57
2018-04-29T08:59:27.891Z,100539.70
2018-04-29T09:01:56.017Z,100507.96
2018-04-29T09:04:24.308Z,100496.13
2018-04-29T09:06:52.423Z,100496.07
2018-04-29T09:09:20.588Z,100489.53
2018-04-29T09:11:48.743Z,100504.48
2018-04-29T09:14:16.877Z,100509.55
2018-04-29T09:16:44.997Z,100507.98
2018-04-29T09:19:13.177Z,100513.73
2018-04-29T09:21:41.318Z,100507.47
2018-04-29T09:24:09.455Z,100498.61
2018-04-29T09:26:37.602Z,100481.83
2018-04-29T09:29:05.742Z,100488.27
2018-04-29T09:31:33.885Z,100489.86
2018-04-29T09:34:02.041Z,100479.80
2018-04-29T09:36:30.170Z,100464.69
2018-04-29T09:38:58.323Z,100454.37
2018-04-29T09:41:26.462Z,100452.72
2018-04-29T09:43:54.581Z,100443.30
2018-04-29T09:46:22.801Z,100437.64
2018-04-29T09:48:51.027Z,100434.44
2018-04-29T09:51:19.235Z,100428.80
2018-04-29T09:53:47.423Z,100434.66
2018-04-29T09:56:15.819Z,100421.86
2018-04-29T09:58:43.947Z,100429.30
2018-04-29T10:01:17.979Z,100420.55
2018-04-29T10:03:47.741Z,100422.16
2018-04-29T10:06:15.863Z,100421.68
2018-04-29T10:08:43.993Z,100422.78
2018-04-29T10:11:12.125Z,100417.08
2018-04-29T10:13:40.248Z,100414.95
2018-04-29T10:16:08.383Z,100398.14
2018-04-29T10:18:36.915Z,100402.20
2018-04-29T10:21:05.035Z,100406.70
2018-04-29T10:23:33.192Z,100398.59
2018-04-29T10:26:01.303Z,100394.19
2018-04-29T10:28:29.446Z,100380.34
2018-04-29T10:30:57.765Z,100388.88
2018-04-29T10:33:25.905Z,100385.39
2018-04-29T10:35:54.023Z,100384.55
2018-04-29T10:38:22.174Z,100370.98
2018-04-29T10:40:50.317Z,100363.02
2018-04-29T10:43:18.438Z,100360.77
2018-04-29T10:45:46.969Z,100348.17
2018-04-29T10:48:15.129Z,100335.28
2018-04-29T10:50:43.247Z,100326.08
2018-04-29T10:53:11.595Z,100319.42
2018-04-29T10:55:39.737Z,100324.02
2018-04-29T10:58:07.880Z,100322.66
2018-04-29T11:00:36.012Z,100316.15
2018-04-29T11:03:04.139Z,100300.28
2018-04-29T11:05:32.258Z,100288.19
2018-04-29T11:08:00.388Z,100296.89
2018-04-29T11:10:28.526Z,100298.91
2018-04-29T11:12:56.627Z,100295.78
2018-04-29T11:15:24.793Z,100290.63
2018-04-29T11:17:52.919Z,100299.97
2018-04-29T11:20:21.050Z,100291.14
2018-04-29T11:22:49.198Z,100289.48
2018-04-29T11:25:17.316Z,100283.39
2018-04-29T11:27:45.449Z,100283.48
2018-04-29T11:30:13.625Z,100289.48
2018-04-29T11:32:41.743Z,100284.84
2018-04-29T11:35:09.870Z,100289.77
2018-04-29T11:37:38.033Z,100284.70
2018-04-29T11:40:06.150Z,100283.56
2018-04-29T11:42:34.300Z,100275.83
2018-04-29T11:45:02.638Z,100262.38
2018-04-29T11:47:30.785Z,100261.00
2018-04-29T11:49:58.902Z,100253.09
2018-04-29T11:52:27.258Z,100246.75
2018-04-29T11:54:55.401Z,100255.34
2018-04-29T11:57:23.523Z,100255.33
2018-04-29T11:59:51.683Z,100254.75
2018-04-29T12:02:19.803Z,100263.59
2018-04-29T12:04:47.926Z,100250.85
2018-04-29T12:07:16.085Z,100239.91
2018-04-29T12:09:44.192Z,100236.25
2018-04-29T12:12:12.410Z,100237.69
2018-04-29T12:14:40.485Z,100227.35
2018-04-29T12:17:08.607Z,100216.30
2018-04-29T12:19:36.730Z,100204.47
2018-04-29T12:22:04.878Z,100192.77
2018-04-29T12:24:33.133Z,100181.56
2018-04-29T12:27:01.109Z,100181.71
2018-04-29T12:29:29.273Z,100176.91
2018-04-29T12:31:57.413Z,100174.86
2018-04-29T12:34:25.531Z,100167.94
2018-04-29T12:36:53.688Z,100181.84
2018-04-29T12:39:21.797Z,100180.38
2018-04-29T12:41:49.922Z,100164.49
2018-04-29T12:44:18.078Z,100167.20
2018-04-29T12:46:46.262Z,100159.95
2018-04-29T12:49:14.335Z,100152.25
2018-04-29T12:51:42.485Z,100149.16
2018-04-29T12:54:10.690Z,100133.83
2018-04-29T12:56:38.785Z,100140.39
2018-04-29T12:59:06.922Z,100137.39
2018-04-29T13:01:35.043Z,100134.66
2018-04-29T13:04:03.163Z,100127.20
2018-04-29T13:06:31.308Z,100115.66
2018-04-29T13:08:59.415Z,100115.05
2018-04-29T13:11:30.493Z,100105.19
2018-04-29T13:13:58.621Z,100092.50
2018-04-29T13:16:26.742Z,100091.14
2018-04-29T13:18:54.873Z,100084.45
2018-04-29T13:21:23.014Z,100082.51
2018-04-29T13:23:51.153Z,100082.64
2018-04-29T13:26:19.260Z,100071.65
2018-04-29T13:28:47.478Z,100057.25
2018-04-29T13:31:15.535Z,100063.02
2018-04-29T13:33:43.640Z,100057.98
2018-04-29T13:36:11.782Z,100053.22
2018-04-29T13:38:39.889Z,100048.56
2018-04-29T13:41:08.000Z,100044.51
2018-04-29T13:43:36.323Z,100049.27
2018-04-29T13:46:04.452Z,100034.04
2018-04-29T13:48:32.570Z,100033.05
2018-04-29T13:51:00.723Z,100034.27
2018-04-29T13:53:28.998Z,100036.30
2018-04-29T13:55:57.122Z,100023.64
2018-04-29T13:58:25.262Z,100018.78
2018-04-29T14:00:53.448Z,100014.38
2018-04-29T14:03:21.597Z,100012.75
2018-04-29T14:05:49.634Z,100008.22
2018-04-29T14:08:17.805Z,100010.06
2018-04-29T14:10:46.008Z,100015.58
2018-04-29T14:13:14.191Z,99990.86
2018-04-29T14:15:42.345Z,99985.48
2018-04-29T14:18:10.449Z,99985.18
2018-04-29T14:20:38.568Z,99982.86
2018-04-29T14:23:06.698Z,99986.30
2018-04-29T14:25:34.807Z,99977.64
2018-04-29T14:28:03.082Z,99978.72
2018-04-29T14:30:31.213Z,99970.91
2018-04-29T14:32:59.326Z,99977.55
2018-04-29T14:35:27.460Z,99970.91
2018-04-29T14:37:55.564Z,99980.80
2018-04-29T14:40:23.667Z,99969.11
2018-04-29T14:42:51.802Z,99953.09
2018-04-29T14:45:19.915Z,99965.13
2018-04-29T14:47:48.048Z,99961.31
2018-04-29T14:50:16.192Z,99966.85
2018-04-29T14:52:44.320Z,99953.55
2018-04-29T14:55:12.443Z,99952.94
2018-04-29T14:57:40.565Z,99948.11
2018-04-29T15:00:08.691Z,99952.21
2018-04-29T15:02:36.828Z,99963.51
2018-04-29T15:05:04.954Z,99962.62
2018-04-29T15:07:33.089Z,99965.58
2018-04-29T15:10:01.185Z,99970.00
2018-04-29T15:12:29.318Z,99967.33
2018-04-29T15:14:57.430Z,99974.84
2018-04-29T15:17:25.528Z,99975.22
2018-04-29T15:19:53.643Z,99974.61
2018-04-29T15:22:21.783Z,99970.28
2018-04-29T15:24:49.979Z,99967.77
2018-04-29T15:27:18.007Z,99959.81
2018-04-29T15:29:46.133Z,99965.05
2018-04-29T15:32:15.163Z,99959.72
2018-04-29T15:34:43.304Z,99950.25
2018-04-29T15:37:11.439Z,99934.41
2018-04-29T15:39:39.540Z,99920.44
2018-04-29T15:42:07.681Z,99912.36
2018-04-29T15:44:35.801Z,99909.97
2018-04-29T15:47:03.900Z,99906.19
2018-04-29T15:49:32.055Z,99906.31
2018-04-29T15:52:00.154Z,99897.44
2018-04-29T15:54:28.283Z,99893.63
2018-04-29T15:56:56.400Z,99901.06
2018-04-29T15:59:24.533Z,99894.37
2018-04-29T16:01:52.669Z,99890.67
2018-04-29T16:04:20.783Z,99889.13
2018-04-29T16:06:48.963Z,99891.95
2018-04-29T16:09:17.096Z,99891.95
2018-04-29T16:11:45.227Z,99889.03
2018-04-29T16:14:13.360Z,99882.02
2018-04-29T16:16:41.461Z,99882.91
2018-04-29T16:19:09.587Z,99897.59
2018-04-29T16:21:37.710Z,99885.09
2018-04-29T16:24:05.826Z,99875.99
2018-04-29T16:26:33.959Z,99868.23
2018-04-29T16:29:02.092Z,99865.64
2018-04-29T16:31:30.221Z,99860.88
2018-04-29T16:33:58.375Z,99847.44
2018-04-29T16:36:26.525Z,99833.28
2018-04-29T16:38:54.619Z,99833.13
2018-04-29T16:41:22.823Z,99841.39
2018-04-29T16:43:51.230Z,99849.64
2018-04-29T16:46:20.199Z,99850.23
2018-04-29T16:48:48.355Z,99846.08
2018-04-29T16:51:16.490Z,99856.30
2018-04-29T16:53:44.620Z,99855.19
2018-04-29T16:56:12.744Z,99855.09
2018-04-29T16:58:40.867Z,99854.04
2018-04-29T17:01:09.049Z,99848.22
2018-04-29T17:03:37.135Z,99847.86
2018-04-29T17:06:05.263Z,99842.55
2018-04-29T17:08:33.397Z,99836.81
2018-04-29T17:11:01.514Z,99824.95
2018-04-29T17:13:29.620Z,99819.06
2018-04-29T17:15:57.765Z,99808.45
2018-04-29T17:18:25.928Z,99816.75
2018-04-29T17:20:54.148Z,99821.31
2018-04-29T17:23:22.332Z,99832.25
2018-04-29T17:25:50.466Z,99839.08
2018-04-29T17:28:18.653Z,99824.02
2018-04-29T17:30:46.939Z,99829.38
2018-04-29T17:33:15.121Z,99817.40
2018-04-29T17:35:43.365Z,99809.41
2018-04-29T17:38:11.576Z,99814.41
2018-04-29T17:40:39.640Z,99827.39
2018-04-29T17:43:07.758Z,99811.53
2018-04-29T17:45:35.856Z,99795.95
2018-04-29T17:48:04.003Z,99782.14
2018-04-29T17:50:32.132Z,99784.03
2018-04-29T17:53:00.257Z,99788.97
2018-04-29T17:55:28.410Z,99783.02
2018-04-29T17:57:56.622Z,99775.17
2018-04-29T18:00:24.743Z,99774.58
2018-04-29T18:02:52.886Z,99772.05
2018-04-29T18:05:21.038Z,99766.28
2018-04-29T18:07:49.179Z,99771.58
2018-04-29T18:10:17.321Z,99764.48
2018-04-29T18:12:45.463Z,99770.94
2018-04-29T18:15:13.725Z,99764.58
2018-04-29T18:17:41.871Z,99763.80
2018-04-29T18:20:10.012Z,99756.92
2018-04-29T18:22:38.115Z,99751.26
2018-04-29T18:25:06.530Z,99756.76
2018-04-29T18:27:34.698Z,99760.62
2018-04-29T18:30:02.783Z,99761.77
2018-04-29T18:32:30.900Z,99758.47
2018-04-29T18:34:59.027Z,99754.58
2018-04-29T18:37:27.150Z,99754.33
2018-04-29T18:39:55.282Z,99751.70
2018-04-29T18:42:23.392Z,99761.44
2018-04-29T18:44:51.534Z,99770.42
2018-04-29T18:47:19.670Z,99760.81
2018-04-29T18:49:47.797Z,99760.45
2018-04-29T18:52:15.932Z,99762.95
2018-04-29T18:54:44.079Z,99758.27
2018-04-29T18:57:12.213Z,99755.47
2018-04-29T18:59:40.312Z,99754.98
2018-04-29T19:02:08.508Z,99756.85
2018-04-29T19:04:36.626Z,99737.83
2018-04-29T19:07:04.744Z,99734.70
2018-04-29T19:09:33.279Z,99739.68
2018-04-29T19:12:01.418Z,99742.59
2018-04-29T19:14:29.520Z,99739.38
2018-04-29T19:16:57.857Z,99739.61
2018-04-29T19:19:25.982Z,99735.00
2018-04-29T19:21:54.127Z,99736.78
2018-04-29T19:24:22.258Z,99743.11
2018-04-29T19:26:50.375Z,99743.36
2018-04-29T19:29:18.523Z,99733.50
2018-04-29T19:31:46.646Z,99741.34
2018-04-29T19:34:14.756Z,99735.78
2018-04-29T19:36:42.896Z,99727.90
2018-04-29T19:39:11.007Z,99719.37
2018-04-29T19:41:39.115Z,99707.77
2018-04-29T19:44:07.224Z,99698.78
2018-04-29T19:46:35.394Z,99684.28
2018-04-29T19:49:03.533Z,99678.51
2018-04-29T19:51:31.729Z,99666.45
2018-04-29T19:53:59.921Z,99659.63
2018-04-29T19:56:28.046Z,99646.38
2018-04-29T19:58:59.954Z,99643.56
2018-04-29T20:01:28.094Z,99641.57
2018-04-29T20:03:56.231Z,99642.59
2018-04-29T20:06:24.356Z,99636.89
2018-04-29T20:08:52.480Z,99627.42
2018-04-29T20:11:20.732Z,99623.39
2018-04-29T20:13:48.857Z,99616.80
2018-04-29T20:16:16.959Z,99609.61
2018-04-29T20:18:45.078Z,99599.61
2018-04-29T20:21:13.183Z,99587.75
2018-04-29T20:23:41.306Z,99579.83
2018-04-29T20:26:09.430Z,99570.03
2018-04-29T20:28:37.564Z,99565.89
2018-04-29T20:31:05.832Z,99550.42
2018-04-29T20:33:33.959Z,99554.95
2018-04-29T20:36:02.097Z,99556.61
2018-04-29T20:38:30.228Z,99561.11
2018-04-29T20:40:58.344Z,99552.13
2018-04-29T20:43:26.467Z,99541.02
2018-04-29T20:45:55.520Z,99534.62
2018-04-29T20:48:23.720Z,99527.91
2018-04-29T20:50:51.762Z,99517.06
2018-04-29T20:53:19.914Z,99511.98
2018-04-29T20:55:48.090Z,99521.00
2018-04-29T20:58:16.215Z,99521.20
2018-04-29T21:00:44.604Z,99507.38
2018-04-29T21:03:13.099Z,99508.12
2018-04-29T21:05:41.214Z,99507.63
2018-04-29T21:08:09.619Z,99499.77
2018-04-29T21:10:37.744Z,99487.83
2018-04-29T21:13:05.858Z,99491.61
2018-04-29T21:15:33.975Z,99478.66
2018-04-29T21:18:03.487Z,99474.78
2018-04-29T21:20:31.583Z,99469.84
2018-04-29T21:22:59.745Z,99468.03
2018-04-29T21:25:27.876Z,99475.20
2018-04-29T21:27:56.042Z,99468.66
2018-04-29T21:30:24.225Z,99453.16
2018-04-29T21:32:52.357Z,99440.20
2018-04-29T21:35:20.615Z,99447.41
2018-04-29T21:37:48.996Z,99434.97
2018-04-29T21:40:17.136Z,99425.23
2018-04-29T21:42:45.259Z,99425.16
2018-04-29T21:45:13.538Z,99421.20
2018-04-29T21:47:41.662Z,99418.70
2018-04-29T21:50:09.786Z,99411.12
2018-04-29T21:52:37.930Z,99410.27
2018-04-29T21:55:06.035Z,99404.52
2018-04-29T21:57:34.169Z,99405.80
2018-04-29T22:00:02.395Z,99392.63
2018-04-29T22:02:30.484Z,99393.03
2018-04-29T22:04:58.610Z,99384.92
2018-04-29T22:07:26.743Z,99378.53
2018-04-29T22:09:54.989Z,99360.73
2018-04-29T22:12:23.091Z,99351.26
2018-04-29T22:14:51.320Z,99341.31
2018-04-29T22:17:19.428Z,99337.23
2018-04-29T22:19:47.570Z,99328.92
2018-04-29T22:22:19.266Z,99323.78
2018-04-29T22:24:47.572Z,99317.66
2018-04-29T22:27:15.734Z,99319.11
2018-04-29T22:29:43.908Z,99312.35
2018-04-29T22:32:12.077Z,99301.41
2018-04-29T22:34:40.216Z,99327.20
2018-04-29T22:37:08.483Z,99379.75
2018-04-29T22:39:39.870Z,99436.97
2018-04-29T22:42:07.998Z,99469.91
2018-04-29T22:44:36.137Z,99481.83
2018-04-29T22:47:04.267Z,99449.91
2018-04-29T22:49:32.445Z,99391.00
2018-04-29T22:52:00.578Z,99357.62
2018-04-29T22:54:28.691Z,99456.34
2018-04-29T22:56:56.826Z,99493.37
2018-04-29T22:59:25.191Z,99528.72
2018-04-29T23:01:53.348Z,99549.72
2018-04-29T23:04:21.437Z,99582.82
2018-04-29T23:06:49.574Z,99579.92
2018-04-29T23:09:17.725Z,99582.00
2018-04-29T23:11:45.867Z,99550.23
2018-04-29T23:14:13.991Z,99516.65
2018-04-29T23:16:42.123Z,99503.63
2018-04-29T23:19:10.703Z,99500.67
2018-04-29T23:21:38.869Z,99475.83
2018-04-29T23:24:06.994Z,99449.23
2018-04-29T23:26:35.145Z,99430.97
2018-04-29T23:29:03.282Z,99410.34
2018-04-29T23:31:31.426Z,99415.80
2018-04-29T23:33:59.538Z,99418.39
2018-04-29T23:36:28.007Z,99443.84
2018-04-29T23:38:56.138Z,99444.81
2018-04-29T23:41:24.269Z,99432.64
2018-04-29T23:43:52.407Z,99425.11
2018-04-29T23:46:20.531Z,99438.78
2018-04-29T23:48:48.690Z,99437.16
2018-04-29T23:51:16.824Z,99418.39
2018-04-29T23:53:44.947Z,99423.00
2018-04-29T23:56:13.099Z,99424.34
2018-04-29T23:58:41.480Z,99427.45
